Etusivu
METAR-TAF:

METAR-TAF

Lentoasemat :

Cap Skirring, Senegal

Leveyspiiri: 12-24N, Pituuspiiri: 016-45W, korkeus merenpinnasta: 16 m

Tämänhetkinen sää

Tämä raportti tehtiin 25 minuuttia sitten, kello 21.00 UTC
Tuuli 8 kn etelästä/lounaasta
Lämpötila 28°C
Kosteus 89%
Ilmanpaine 1014 hPa
Näkyvyys 10 km tai enemmän
Hajanaisia pilviä 1300 ft:n korkeudessa

METAR: GOGS 222100Z 20008KT 9999 SCT013 28/26 Q1014

Aika: 21:25 (21:25 UTC)

Sääennuste

Tämä raportti tehtiin 4 tuntia ja 25 minuuttia sitten, kello 17.00 UTC
Ennuste voimassa 22. päivästä klo 18 UTC - 23. päivään klo 18 UTC
Tuuli 6 kn etelästä/lounaasta
Näkyvyys 10 km tai enemmän
Hajanaisia pilviä 1300 ft:n korkeudessa

TAF: GOGS 221700Z 2218/2318 20006KT 9999 SCT013

Säähavainnot ja -ennusteet yli 4000 lentoasemalta (METAR- ja TAF-raportit).

Käytössä olevat sääasemat on merkitty karttaan keltaisilla ja punaisilla pisteillä.

Aseta hiiri pisteen päälle nähdäksesi sääaseman nimen.

Klikkaa sitten nähdäksesi säähavainnot ja -ennusteet.

Kartan vaihtaminen: klikkaa mustalla rastilla varustettuja vihreitä pisteitä, niin voit zoomata sisään; viivalla varustettua vihreää pistettä, niin voit zoomata ulos tai vihreitä nuolia, niin pääset viereisille kartoille.


METAR-TAF: